sensor_id;sensor_type;location;lat;lon;timestamp;P1;durP1;ratioP1;P2;durP2;ratioP2
4106;SDS011;21906;50.812;7.132;2023-07-29T00:02:10;2.20;;;2.10;;
4106;SDS011;21906;50.812;7.132;2023-07-29T00:04:35;2.13;;;2.03;;
4106;SDS011;21906;50.812;7.132;2023-07-29T00:07:01;2.30;;;2.20;;
4106;SDS011;21906;50.812;7.132;2023-07-29T00:09:27;4.07;;;2.20;;
4106;SDS011;21906;50.812;7.132;2023-07-29T00:11:52;2.43;;;2.33;;
4106;SDS011;21906;50.812;7.132;2023-07-29T00:14:18;2.50;;;2.30;;
4106;SDS011;21906;50.812;7.132;2023-07-29T00:16:44;3.57;;;2.47;;
4106;SDS011;21906;50.812;7.132;2023-07-29T00:19:09;3.83;;;2.47;;
4106;SDS011;21906;50.812;7.132;2023-07-29T00:21:35;5.33;;;2.20;;
4106;SDS011;21906;50.812;7.132;2023-07-29T00:24:01;2.40;;;2.30;;
4106;SDS011;21906;50.812;7.132;2023-07-29T00:26:27;2.43;;;2.33;;
4106;SDS011;21906;50.812;7.132;2023-07-29T00:28:54;2.90;;;2.70;;
4106;SDS011;21906;50.812;7.132;2023-07-29T00:31:21;2.60;;;2.40;;
4106;SDS011;21906;50.812;7.132;2023-07-29T00:33:46;2.67;;;2.20;;
4106;SDS011;21906;50.812;7.132;2023-07-29T00:36:12;2.80;;;2.60;;
4106;SDS011;21906;50.812;7.132;2023-07-29T00:38:37;2.70;;;2.47;;
4106;SDS011;21906;50.812;7.132;2023-07-29T00:41:03;3.07;;;2.87;;
4106;SDS011;21906;50.812;7.132;2023-07-29T00:43:29;2.93;;;2.73;;
4106;SDS011;21906;50.812;7.132;2023-07-29T00:45:55;2.60;;;2.50;;
4106;SDS011;21906;50.812;7.132;2023-07-29T00:48:22;2.40;;;2.20;;
4106;SDS011;21906;50.812;7.132;2023-07-29T00:50:49;2.40;;;2.30;;
4106;SDS011;21906;50.812;7.132;2023-07-29T00:53:15;2.67;;;2.40;;
4106;SDS011;21906;50.812;7.132;2023-07-29T00:55:41;3.47;;;2.70;;
4106;SDS011;21906;50.812;7.132;2023-07-29T00:58:07;3.10;;;2.90;;
4106;SDS011;21906;50.812;7.132;2023-07-29T01:00:33;2.57;;;2.47;;
4106;SDS011;21906;50.812;7.132;2023-07-29T01:02:59;3.07;;;2.67;;
4106;SDS011;21906;50.812;7.132;2023-07-29T01:05:26;4.27;;;3.00;;
4106;SDS011;21906;50.812;7.132;2023-07-29T01:08:12;2.57;;;2.47;;
4106;SDS011;21906;50.812;7.132;2023-07-29T01:11:33;3.70;;;2.80;;
4106;SDS011;21906;50.812;7.132;2023-07-29T01:13:58;3.10;;;2.70;;
4106;SDS011;21906;50.812;7.132;2023-07-29T01:16:31;2.90;;;2.70;;
4106;SDS011;21906;50.812;7.132;2023-07-29T01:19:32;3.23;;;3.03;;
4106;SDS011;21906;50.812;7.132;2023-07-29T01:22:26;3.17;;;2.87;;
4106;SDS011;21906;50.812;7.132;2023-07-29T01:24:52;3.90;;;2.93;;
4106;SDS011;21906;50.812;7.132;2023-07-29T01:27:18;3.10;;;2.90;;
4106;SDS011;21906;50.812;7.132;2023-07-29T01:29:44;3.00;;;2.80;;
4106;SDS011;21906;50.812;7.132;2023-07-29T01:32:10;3.07;;;2.87;;
4106;SDS011;21906;50.812;7.132;2023-07-29T01:34:47;4.10;;;2.73;;
4106;SDS011;21906;50.812;7.132;2023-07-29T01:37:19;5.50;;;2.80;;
4106;SDS011;21906;50.812;7.132;2023-07-29T01:39:50;2.93;;;2.70;;
4106;SDS011;21906;50.812;7.132;2023-07-29T01:42:21;3.20;;;2.80;;
4106;SDS011;21906;50.812;7.132;2023-07-29T01:44:47;2.87;;;2.77;;
4106;SDS011;21906;50.812;7.132;2023-07-29T01:47:13;3.10;;;2.80;;
4106;SDS011;21906;50.812;7.132;2023-07-29T01:49:39;3.73;;;2.57;;
4106;SDS011;21906;50.812;7.132;2023-07-29T01:52:04;2.50;;;2.40;;
4106;SDS011;21906;50.812;7.132;2023-07-29T01:54:30;3.20;;;3.00;;
4106;SDS011;21906;50.812;7.132;2023-07-29T01:56:56;2.80;;;2.60;;
4106;SDS011;21906;50.812;7.132;2023-07-29T01:59:21;3.37;;;3.10;;
4106;SDS011;21906;50.812;7.132;2023-07-29T02:01:47;5.90;;;3.00;;
4106;SDS011;21906;50.812;7.132;2023-07-29T02:04:13;2.77;;;2.53;;
4106;SDS011;21906;50.812;7.132;2023-07-29T02:06:39;3.13;;;2.93;;
4106;SDS011;21906;50.812;7.132;2023-07-29T02:09:05;3.20;;;3.00;;
4106;SDS011;21906;50.812;7.132;2023-07-29T02:11:30;2.87;;;2.53;;
4106;SDS011;21906;50.812;7.132;2023-07-29T02:13:56;6.40;;;2.40;;
4106;SDS011;21906;50.812;7.132;2023-07-29T02:16:22;5.27;;;2.60;;
4106;SDS011;21906;50.812;7.132;2023-07-29T02:18:48;3.50;;;3.30;;
4106;SDS011;21906;50.812;7.132;2023-07-29T02:21:17;3.17;;;2.97;;
4106;SDS011;21906;50.812;7.132;2023-07-29T02:23:43;2.80;;;2.60;;
4106;SDS011;21906;50.812;7.132;2023-07-29T02:26:08;3.73;;;2.80;;
4106;SDS011;21906;50.812;7.132;2023-07-29T02:28:34;3.00;;;2.80;;
4106;SDS011;21906;50.812;7.132;2023-07-29T02:31:14;4.00;;;2.70;;
4106;SDS011;21906;50.812;7.132;2023-07-29T02:33:47;4.83;;;2.70;;
4106;SDS011;21906;50.812;7.132;2023-07-29T02:36:13;3.50;;;2.93;;
4106;SDS011;21906;50.812;7.132;2023-07-29T02:38:39;3.90;;;3.50;;
4106;SDS011;21906;50.812;7.132;2023-07-29T02:41:05;5.90;;;3.37;;
4106;SDS011;21906;50.812;7.132;2023-07-29T02:43:31;3.00;;;2.70;;
4106;SDS011;21906;50.812;7.132;2023-07-29T02:45:57;3.10;;;2.90;;
4106;SDS011;21906;50.812;7.132;2023-07-29T02:48:22;3.10;;;2.80;;
4106;SDS011;21906;50.812;7.132;2023-07-29T02:50:49;3.90;;;3.60;;
4106;SDS011;21906;50.812;7.132;2023-07-29T02:53:15;3.50;;;3.10;;
4106;SDS011;21906;50.812;7.132;2023-07-29T02:55:40;2.87;;;2.60;;
4106;SDS011;21906;50.812;7.132;2023-07-29T02:58:06;3.20;;;3.00;;
4106;SDS011;21906;50.812;7.132;2023-07-29T03:00:32;3.07;;;2.87;;
4106;SDS011;21906;50.812;7.132;2023-07-29T03:02:58;3.70;;;3.37;;
4106;SDS011;21906;50.812;7.132;2023-07-29T03:05:24;3.17;;;2.97;;
4106;SDS011;21906;50.812;7.132;2023-07-29T03:07:49;3.23;;;3.03;;
4106;SDS011;21906;50.812;7.132;2023-07-29T03:10:15;3.50;;;3.20;;
4106;SDS011;21906;50.812;7.132;2023-07-29T03:12:41;2.67;;;2.47;;
4106;SDS011;21906;50.812;7.132;2023-07-29T03:15:06;2.40;;;2.20;;
4106;SDS011;21906;50.812;7.132;2023-07-29T03:17:32;3.33;;;2.33;;
4106;SDS011;21906;50.812;7.132;2023-07-29T03:19:58;2.07;;;1.97;;
4106;SDS011;21906;50.812;7.132;2023-07-29T03:22:24;2.13;;;1.93;;
4106;SDS011;21906;50.812;7.132;2023-07-29T03:24:49;2.27;;;2.17;;
4106;SDS011;21906;50.812;7.132;2023-07-29T03:27:15;1.90;;;1.80;;
4106;SDS011;21906;50.812;7.132;2023-07-29T03:29:41;1.70;;;1.60;;
4106;SDS011;21906;50.812;7.132;2023-07-29T03:32:07;1.70;;;1.60;;
4106;SDS011;21906;50.812;7.132;2023-07-29T03:34:32;1.90;;;1.47;;
4106;SDS011;21906;50.812;7.132;2023-07-29T03:36:59;1.50;;;1.40;;
4106;SDS011;21906;50.812;7.132;2023-07-29T03:39:26;2.40;;;1.57;;
4106;SDS011;21906;50.812;7.132;2023-07-29T03:41:51;1.60;;;1.50;;
4106;SDS011;21906;50.812;7.132;2023-07-29T03:44:17;1.70;;;1.60;;
4106;SDS011;21906;50.812;7.132;2023-07-29T03:46:43;1.63;;;1.50;;
4106;SDS011;21906;50.812;7.132;2023-07-29T03:49:09;1.60;;;1.50;;
4106;SDS011;21906;50.812;7.132;2023-07-29T03:51:35;1.37;;;1.27;;
4106;SDS011;21906;50.812;7.132;2023-07-29T03:54:01;2.70;;;1.50;;
4106;SDS011;21906;50.812;7.132;2023-07-29T03:56:26;1.77;;;1.40;;
4106;SDS011;21906;50.812;7.132;2023-07-29T03:58:52;1.83;;;1.43;;
4106;SDS011;21906;50.812;7.132;2023-07-29T04:01:18;2.70;;;1.50;;
4106;SDS011;21906;50.812;7.132;2023-07-29T04:03:45;1.87;;;1.50;;
4106;SDS011;21906;50.812;7.132;2023-07-29T04:06:13;1.93;;;1.50;;
4106;SDS011;21906;50.812;7.132;2023-07-29T04:08:39;2.03;;;1.50;;
4106;SDS011;21906;50.812;7.132;2023-07-29T04:11:06;1.40;;;1.30;;
4106;SDS011;21906;50.812;7.132;2023-07-29T04:13:32;1.80;;;1.70;;
4106;SDS011;21906;50.812;7.132;2023-07-29T04:15:57;1.60;;;1.50;;
4106;SDS011;21906;50.812;7.132;2023-07-29T04:18:23;1.70;;;1.60;;
4106;SDS011;21906;50.812;7.132;2023-07-29T04:20:49;1.50;;;1.40;;
4106;SDS011;21906;50.812;7.132;2023-07-29T04:23:14;3.23;;;1.50;;
4106;SDS011;21906;50.812;7.132;2023-07-29T04:25:40;1.80;;;1.70;;
4106;SDS011;21906;50.812;7.132;2023-07-29T04:28:06;1.83;;;1.60;;
4106;SDS011;21906;50.812;7.132;2023-07-29T04:30:31;1.67;;;1.53;;
4106;SDS011;21906;50.812;7.132;2023-07-29T04:32:57;2.23;;;1.60;;
4106;SDS011;21906;50.812;7.132;2023-07-29T04:35:23;2.17;;;1.57;;
4106;SDS011;21906;50.812;7.132;2023-07-29T04:37:48;2.03;;;1.70;;
4106;SDS011;21906;50.812;7.132;2023-07-29T04:40:14;1.57;;;1.47;;
4106;SDS011;21906;50.812;7.132;2023-07-29T04:42:40;1.40;;;1.30;;
4106;SDS011;21906;50.812;7.132;2023-07-29T04:45:06;1.80;;;1.60;;
4106;SDS011;21906;50.812;7.132;2023-07-29T04:47:31;1.73;;;1.50;;
4106;SDS011;21906;50.812;7.132;2023-07-29T04:49:57;1.57;;;1.47;;
4106;SDS011;21906;50.812;7.132;2023-07-29T04:52:23;1.60;;;1.50;;
4106;SDS011;21906;50.812;7.132;2023-07-29T04:54:48;2.07;;;1.57;;
4106;SDS011;21906;50.812;7.132;2023-07-29T04:57:14;1.40;;;1.30;;
4106;SDS011;21906;50.812;7.132;2023-07-29T04:59:40;1.63;;;1.53;;
4106;SDS011;21906;50.812;7.132;2023-07-29T05:02:05;1.53;;;1.40;;
4106;SDS011;21906;50.812;7.132;2023-07-29T05:04:31;1.50;;;1.40;;
4106;SDS011;21906;50.812;7.132;2023-07-29T05:06:57;1.83;;;1.60;;
4106;SDS011;21906;50.812;7.132;2023-07-29T05:09:23;5.13;;;1.60;;
4106;SDS011;21906;50.812;7.132;2023-07-29T05:11:48;2.00;;;1.90;;
4106;SDS011;21906;50.812;7.132;2023-07-29T05:14:15;1.63;;;1.43;;
4106;SDS011;21906;50.812;7.132;2023-07-29T05:16:42;2.20;;;1.60;;
4106;SDS011;21906;50.812;7.132;2023-07-29T05:19:08;3.40;;;1.37;;
4106;SDS011;21906;50.812;7.132;2023-07-29T05:21:33;2.80;;;2.07;;
4106;SDS011;21906;50.812;7.132;2023-07-29T05:23:59;1.70;;;1.60;;
4106;SDS011;21906;50.812;7.132;2023-07-29T05:26:25;1.80;;;1.70;;
4106;SDS011;21906;50.812;7.132;2023-07-29T05:28:51;2.13;;;1.50;;
4106;SDS011;21906;50.812;7.132;2023-07-29T05:31:16;1.83;;;1.43;;
4106;SDS011;21906;50.812;7.132;2023-07-29T05:33:42;1.87;;;1.77;;
4106;SDS011;21906;50.812;7.132;2023-07-29T05:36:08;2.00;;;1.50;;
4106;SDS011;21906;50.812;7.132;2023-07-29T05:38:34;1.70;;;1.60;;
4106;SDS011;21906;50.812;7.132;2023-07-29T05:40:59;2.20;;;2.00;;
4106;SDS011;21906;50.812;7.132;2023-07-29T05:43:26;1.87;;;1.77;;
4106;SDS011;21906;50.812;7.132;2023-07-29T05:45:52;7.33;;;1.53;;
4106;SDS011;21906;50.812;7.132;2023-07-29T05:48:19;2.70;;;1.70;;
4106;SDS011;21906;50.812;7.132;2023-07-29T05:50:45;1.70;;;1.60;;
4106;SDS011;21906;50.812;7.132;2023-07-29T05:53:10;2.00;;;1.90;;
4106;SDS011;21906;50.812;7.132;2023-07-29T05:55:36;2.40;;;1.73;;
4106;SDS011;21906;50.812;7.132;2023-07-29T05:58:02;2.13;;;2.03;;
4106;SDS011;21906;50.812;7.132;2023-07-29T06:00:27;1.83;;;1.73;;
4106;SDS011;21906;50.812;7.132;2023-07-29T06:02:53;1.87;;;1.77;;
4106;SDS011;21906;50.812;7.132;2023-07-29T06:05:18;1.90;;;1.80;;
4106;SDS011;21906;50.812;7.132;2023-07-29T06:07:44;1.70;;;1.60;;
4106;SDS011;21906;50.812;7.132;2023-07-29T06:10:11;1.93;;;1.83;;
4106;SDS011;21906;50.812;7.132;2023-07-29T06:12:38;2.10;;;1.90;;
4106;SDS011;21906;50.812;7.132;2023-07-29T06:15:04;2.13;;;2.00;;
4106;SDS011;21906;50.812;7.132;2023-07-29T06:17:30;2.03;;;1.90;;
4106;SDS011;21906;50.812;7.132;2023-07-29T06:19:56;1.90;;;1.70;;
4106;SDS011;21906;50.812;7.132;2023-07-29T06:22:22;2.20;;;2.00;;
4106;SDS011;21906;50.812;7.132;2023-07-29T06:24:47;1.87;;;1.77;;
4106;SDS011;21906;50.812;7.132;2023-07-29T06:27:13;1.90;;;1.80;;
4106;SDS011;21906;50.812;7.132;2023-07-29T06:29:38;2.23;;;2.13;;
4106;SDS011;21906;50.812;7.132;2023-07-29T06:32:04;2.47;;;2.27;;
4106;SDS011;21906;50.812;7.132;2023-07-29T06:34:30;2.50;;;2.30;;
4106;SDS011;21906;50.812;7.132;2023-07-29T06:36:56;2.70;;;2.50;;
4106;SDS011;21906;50.812;7.132;2023-07-29T06:39:22;2.70;;;2.60;;
4106;SDS011;21906;50.812;7.132;2023-07-29T06:41:47;3.20;;;3.00;;
4106;SDS011;21906;50.812;7.132;2023-07-29T06:44:13;3.13;;;2.90;;
4106;SDS011;21906;50.812;7.132;2023-07-29T06:46:39;3.73;;;3.53;;
4106;SDS011;21906;50.812;7.132;2023-07-29T06:49:05;4.27;;;3.20;;
4106;SDS011;21906;50.812;7.132;2023-07-29T06:51:31;4.73;;;3.40;;
4106;SDS011;21906;50.812;7.132;2023-07-29T06:53:59;3.60;;;3.40;;
4106;SDS011;21906;50.812;7.132;2023-07-29T06:56:26;4.00;;;3.80;;
4106;SDS011;21906;50.812;7.132;2023-07-29T06:58:51;4.37;;;4.07;;
4106;SDS011;21906;50.812;7.132;2023-07-29T07:01:17;4.10;;;3.80;;
4106;SDS011;21906;50.812;7.132;2023-07-29T07:03:43;5.57;;;3.87;;
4106;SDS011;21906;50.812;7.132;2023-07-29T07:06:09;3.93;;;3.70;;
4106;SDS011;21906;50.812;7.132;2023-07-29T07:08:34;4.30;;;4.00;;
4106;SDS011;21906;50.812;7.132;2023-07-29T07:11:00;5.03;;;4.60;;
4106;SDS011;21906;50.812;7.132;2023-07-29T07:13:26;4.60;;;4.30;;
4106;SDS011;21906;50.812;7.132;2023-07-29T07:15:55;4.40;;;4.00;;
4106;SDS011;21906;50.812;7.132;2023-07-29T07:18:21;5.90;;;4.03;;
4106;SDS011;21906;50.812;7.132;2023-07-29T07:20:50;4.87;;;4.57;;
4106;SDS011;21906;50.812;7.132;2023-07-29T07:23:16;5.63;;;5.07;;
4106;SDS011;21906;50.812;7.132;2023-07-29T07:25:42;5.23;;;4.93;;
4106;SDS011;21906;50.812;7.132;2023-07-29T07:28:08;6.90;;;5.10;;
4106;SDS011;21906;50.812;7.132;2023-07-29T07:30:34;6.00;;;5.40;;
4106;SDS011;21906;50.812;7.132;2023-07-29T07:33:00;4.57;;;4.17;;
4106;SDS011;21906;50.812;7.132;2023-07-29T07:35:26;4.20;;;4.00;;
4106;SDS011;21906;50.812;7.132;2023-07-29T07:37:52;9.53;;;4.17;;
4106;SDS011;21906;50.812;7.132;2023-07-29T07:40:17;4.10;;;3.80;;
4106;SDS011;21906;50.812;7.132;2023-07-29T07:42:43;5.73;;;3.83;;
4106;SDS011;21906;50.812;7.132;2023-07-29T07:45:09;4.03;;;3.73;;
4106;SDS011;21906;50.812;7.132;2023-07-29T07:47:34;3.90;;;3.60;;
4106;SDS011;21906;50.812;7.132;2023-07-29T07:50:00;3.90;;;3.50;;
4106;SDS011;21906;50.812;7.132;2023-07-29T07:52:26;5.43;;;3.20;;
4106;SDS011;21906;50.812;7.132;2023-07-29T07:54:53;4.00;;;3.30;;
4106;SDS011;21906;50.812;7.132;2023-07-29T07:57:22;3.47;;;3.27;;
4106;SDS011;21906;50.812;7.132;2023-07-29T07:59:48;4.10;;;3.77;;
4106;SDS011;21906;50.812;7.132;2023-07-29T08:02:14;3.67;;;3.37;;
4106;SDS011;21906;50.812;7.132;2023-07-29T08:04:39;4.03;;;2.97;;
4106;SDS011;21906;50.812;7.132;2023-07-29T08:07:05;3.87;;;3.10;;
4106;SDS011;21906;50.812;7.132;2023-07-29T08:09:31;3.60;;;3.30;;
4106;SDS011;21906;50.812;7.132;2023-07-29T08:11:56;3.57;;;3.17;;
4106;SDS011;21906;50.812;7.132;2023-07-29T08:14:22;3.20;;;2.90;;
4106;SDS011;21906;50.812;7.132;2023-07-29T08:16:48;3.00;;;2.80;;
4106;SDS011;21906;50.812;7.132;2023-07-29T08:19:13;2.97;;;2.57;;
4106;SDS011;21906;50.812;7.132;2023-07-29T08:21:39;4.03;;;2.80;;
4106;SDS011;21906;50.812;7.132;2023-07-29T08:24:05;2.77;;;2.57;;
4106;SDS011;21906;50.812;7.132;2023-07-29T08:26:32;2.50;;;2.40;;
4106;SDS011;21906;50.812;7.132;2023-07-29T08:28:58;3.27;;;2.70;;
4106;SDS011;21906;50.812;7.132;2023-07-29T08:31:24;2.90;;;2.70;;
4106;SDS011;21906;50.812;7.132;2023-07-29T08:33:49;2.50;;;2.17;;
4106;SDS011;21906;50.812;7.132;2023-07-29T08:36:15;3.40;;;3.10;;
4106;SDS011;21906;50.812;7.132;2023-07-29T08:38:41;2.90;;;2.70;;
4106;SDS011;21906;50.812;7.132;2023-07-29T08:41:19;3.13;;;2.93;;
4106;SDS011;21906;50.812;7.132;2023-07-29T08:43:52;2.70;;;2.50;;
4106;SDS011;21906;50.812;7.132;2023-07-29T08:46:21;2.70;;;2.50;;
4106;SDS011;21906;50.812;7.132;2023-07-29T08:48:47;2.87;;;2.67;;
4106;SDS011;21906;50.812;7.132;2023-07-29T08:51:14;2.70;;;2.50;;
4106;SDS011;21906;50.812;7.132;2023-07-29T08:53:42;2.43;;;2.33;;
4106;SDS011;21906;50.812;7.132;2023-07-29T08:56:08;4.07;;;2.47;;
4106;SDS011;21906;50.812;7.132;2023-07-29T08:58:34;5.20;;;2.80;;
4106;SDS011;21906;50.812;7.132;2023-07-29T09:01:01;3.50;;;2.60;;
4106;SDS011;21906;50.812;7.132;2023-07-29T09:03:26;4.53;;;2.70;;
4106;SDS011;21906;50.812;7.132;2023-07-29T09:05:52;2.70;;;2.50;;
4106;SDS011;21906;50.812;7.132;2023-07-29T09:08:20;2.60;;;2.40;;
4106;SDS011;21906;50.812;7.132;2023-07-29T09:10:46;3.20;;;3.00;;
4106;SDS011;21906;50.812;7.132;2023-07-29T09:13:12;2.47;;;2.37;;
4106;SDS011;21906;50.812;7.132;2023-07-29T09:15:38;2.40;;;2.23;;
4106;SDS011;21906;50.812;7.132;2023-07-29T09:18:17;2.30;;;2.10;;
4106;SDS011;21906;50.812;7.132;2023-07-29T09:20:46;2.40;;;2.20;;
4106;SDS011;21906;50.812;7.132;2023-07-29T09:23:13;4.50;;;2.37;;
4106;SDS011;21906;50.812;7.132;2023-07-29T09:25:39;2.20;;;2.10;;
4106;SDS011;21906;50.812;7.132;2023-07-29T09:28:09;2.10;;;2.00;;
4106;SDS011;21906;50.812;7.132;2023-07-29T09:30:39;2.67;;;2.00;;
4106;SDS011;21906;50.812;7.132;2023-07-29T09:33:06;1.90;;;1.80;;
4106;SDS011;21906;50.812;7.132;2023-07-29T09:35:33;2.20;;;2.10;;
4106;SDS011;21906;50.812;7.132;2023-07-29T09:37:59;2.30;;;2.10;;
4106;SDS011;21906;50.812;7.132;2023-07-29T09:40:26;2.30;;;2.10;;
4106;SDS011;21906;50.812;7.132;2023-07-29T09:42:52;2.43;;;2.23;;
4106;SDS011;21906;50.812;7.132;2023-07-29T09:45:20;2.20;;;2.10;;
4106;SDS011;21906;50.812;7.132;2023-07-29T09:47:49;2.27;;;2.17;;
4106;SDS011;21906;50.812;7.132;2023-07-29T09:50:16;3.10;;;2.30;;
4106;SDS011;21906;50.812;7.132;2023-07-29T09:52:43;2.23;;;2.13;;
4106;SDS011;21906;50.812;7.132;2023-07-29T09:55:10;2.10;;;2.00;;
4106;SDS011;21906;50.812;7.132;2023-07-29T09:57:39;2.10;;;2.00;;
4106;SDS011;21906;50.812;7.132;2023-07-29T10:00:06;2.10;;;2.00;;
4106;SDS011;21906;50.812;7.132;2023-07-29T10:02:36;2.50;;;2.40;;
4106;SDS011;21906;50.812;7.132;2023-07-29T10:05:06;2.37;;;2.07;;
4106;SDS011;21906;50.812;7.132;2023-07-29T10:07:36;2.13;;;2.03;;
4106;SDS011;21906;50.812;7.132;2023-07-29T10:10:06;2.23;;;2.13;;
4106;SDS011;21906;50.812;7.132;2023-07-29T10:12:33;2.10;;;2.00;;
4106;SDS011;21906;50.812;7.132;2023-07-29T10:15:02;2.10;;;2.00;;
4106;SDS011;21906;50.812;7.132;2023-07-29T10:17:29;2.00;;;1.80;;
4106;SDS011;21906;50.812;7.132;2023-07-29T10:19:56;2.10;;;2.00;;
4106;SDS011;21906;50.812;7.132;2023-07-29T10:22:27;2.13;;;1.90;;
4106;SDS011;21906;50.812;7.132;2023-07-29T10:24:59;3.80;;;2.10;;
4106;SDS011;21906;50.812;7.132;2023-07-29T10:27:31;2.93;;;2.77;;
4106;SDS011;21906;50.812;7.132;2023-07-29T10:30:03;1.97;;;1.87;;
4106;SDS011;21906;50.812;7.132;2023-07-29T10:32:29;2.10;;;2.00;;
4106;SDS011;21906;50.812;7.132;2023-07-29T10:34:57;1.80;;;1.70;;
4106;SDS011;21906;50.812;7.132;2023-07-29T10:37:23;2.30;;;2.07;;
4106;SDS011;21906;50.812;7.132;2023-07-29T10:39:53;1.90;;;1.80;;
4106;SDS011;21906;50.812;7.132;2023-07-29T10:42:19;1.90;;;1.70;;
4106;SDS011;21906;50.812;7.132;2023-07-29T10:44:46;2.53;;;2.33;;
4106;SDS011;21906;50.812;7.132;2023-07-29T10:47:14;1.80;;;1.70;;
4106;SDS011;21906;50.812;7.132;2023-07-29T10:49:42;2.40;;;2.10;;
4106;SDS011;21906;50.812;7.132;2023-07-29T10:52:08;2.10;;;2.00;;
4106;SDS011;21906;50.812;7.132;2023-07-29T10:54:44;2.47;;;2.27;;
4106;SDS011;21906;50.812;7.132;2023-07-29T10:57:15;2.73;;;2.30;;
4106;SDS011;21906;50.812;7.132;2023-07-29T10:59:42;2.00;;;1.90;;
4106;SDS011;21906;50.812;7.132;2023-07-29T11:02:20;2.40;;;2.20;;
4106;SDS011;21906;50.812;7.132;2023-07-29T11:04:53;2.93;;;2.40;;
4106;SDS011;21906;50.812;7.132;2023-07-29T11:07:19;3.30;;;2.37;;
4106;SDS011;21906;50.812;7.132;2023-07-29T11:15:13;4.53;;;2.30;;
4106;SDS011;21906;50.812;7.132;2023-07-29T11:18:15;4.60;;;2.57;;
4106;SDS011;21906;50.812;7.132;2023-07-29T11:20:36;3.00;;;2.80;;
4106;SDS011;21906;50.812;7.132;2023-07-29T11:23:02;2.63;;;2.43;;
4106;SDS011;21906;50.812;7.132;2023-07-29T11:25:29;2.30;;;2.20;;
4106;SDS011;21906;50.812;7.132;2023-07-29T11:27:57;2.37;;;2.27;;
4106;SDS011;21906;50.812;7.132;2023-07-29T11:30:24;2.03;;;1.93;;
4106;SDS011;21906;50.812;7.132;2023-07-29T11:32:52;2.63;;;2.30;;
4106;SDS011;21906;50.812;7.132;2023-07-29T11:35:18;2.40;;;2.23;;
4106;SDS011;21906;50.812;7.132;2023-07-29T11:37:48;2.33;;;2.20;;
4106;SDS011;21906;50.812;7.132;2023-07-29T11:40:15;2.27;;;2.17;;
4106;SDS011;21906;50.812;7.132;2023-07-29T11:42:48;2.57;;;2.37;;
4106;SDS011;21906;50.812;7.132;2023-07-29T11:45:15;2.60;;;2.40;;
4106;SDS011;21906;50.812;7.132;2023-07-29T11:47:42;2.70;;;2.60;;
4106;SDS011;21906;50.812;7.132;2023-07-29T11:50:08;2.50;;;2.40;;
4106;SDS011;21906;50.812;7.132;2023-07-29T11:52:36;2.30;;;2.20;;
4106;SDS011;21906;50.812;7.132;2023-07-29T11:55:03;2.60;;;2.40;;
4106;SDS011;21906;50.812;7.132;2023-07-29T11:57:30;2.27;;;2.17;;
4106;SDS011;21906;50.812;7.132;2023-07-29T11:59:58;2.53;;;2.33;;
4106;SDS011;21906;50.812;7.132;2023-07-29T12:02:24;2.83;;;2.63;;
4106;SDS011;21906;50.812;7.132;2023-07-29T12:04:50;2.40;;;2.30;;
4106;SDS011;21906;50.812;7.132;2023-07-29T12:07:18;2.30;;;2.20;;
4106;SDS011;21906;50.812;7.132;2023-07-29T12:09:45;2.90;;;2.70;;
4106;SDS011;21906;50.812;7.132;2023-07-29T12:12:11;2.70;;;2.60;;
4106;SDS011;21906;50.812;7.132;2023-07-29T12:14:37;2.93;;;2.70;;
4106;SDS011;21906;50.812;7.132;2023-07-29T12:17:04;2.60;;;2.50;;
4106;SDS011;21906;50.812;7.132;2023-07-29T12:19:37;3.00;;;2.40;;
4106;SDS011;21906;50.812;7.132;2023-07-29T12:22:04;2.80;;;2.60;;
4106;SDS011;21906;50.812;7.132;2023-07-29T12:24:31;2.97;;;2.77;;
4106;SDS011;21906;50.812;7.132;2023-07-29T12:26:57;3.10;;;2.90;;
4106;SDS011;21906;50.812;7.132;2023-07-29T12:29:23;2.50;;;2.40;;
4106;SDS011;21906;50.812;7.132;2023-07-29T12:31:56;2.67;;;2.47;;
4106;SDS011;21906;50.812;7.132;2023-07-29T12:34:27;2.40;;;2.30;;
4106;SDS011;21906;50.812;7.132;2023-07-29T12:36:55;2.50;;;2.30;;
4106;SDS011;21906;50.812;7.132;2023-07-29T12:39:29;2.87;;;2.67;;
4106;SDS011;21906;50.812;7.132;2023-07-29T12:41:56;2.17;;;2.07;;
4106;SDS011;21906;50.812;7.132;2023-07-29T12:44:23;2.40;;;2.30;;
4106;SDS011;21906;50.812;7.132;2023-07-29T12:46:50;2.63;;;2.43;;
4106;SDS011;21906;50.812;7.132;2023-07-29T12:49:16;2.60;;;2.50;;
4106;SDS011;21906;50.812;7.132;2023-07-29T12:51:42;2.90;;;2.70;;
4106;SDS011;21906;50.812;7.132;2023-07-29T12:54:08;2.87;;;2.67;;
4106;SDS011;21906;50.812;7.132;2023-07-29T12:56:34;3.13;;;2.63;;
4106;SDS011;21906;50.812;7.132;2023-07-29T12:59:00;2.27;;;2.17;;
4106;SDS011;21906;50.812;7.132;2023-07-29T13:01:27;2.20;;;2.10;;
4106;SDS011;21906;50.812;7.132;2023-07-29T13:03:53;2.23;;;2.13;;
4106;SDS011;21906;50.812;7.132;2023-07-29T13:06:19;2.17;;;2.07;;
4106;SDS011;21906;50.812;7.132;2023-07-29T13:08:46;2.60;;;2.40;;
4106;SDS011;21906;50.812;7.132;2023-07-29T13:11:12;2.17;;;2.07;;
4106;SDS011;21906;50.812;7.132;2023-07-29T13:13:39;2.20;;;2.00;;
4106;SDS011;21906;50.812;7.132;2023-07-29T13:16:04;2.30;;;2.20;;
4106;SDS011;21906;50.812;7.132;2023-07-29T13:18:31;2.30;;;2.20;;
4106;SDS011;21906;50.812;7.132;2023-07-29T13:20:57;2.80;;;2.40;;
4106;SDS011;21906;50.812;7.132;2023-07-29T13:23:22;2.57;;;2.40;;
4106;SDS011;21906;50.812;7.132;2023-07-29T13:25:48;4.07;;;2.10;;
4106;SDS011;21906;50.812;7.132;2023-07-29T13:28:15;2.40;;;2.30;;
4106;SDS011;21906;50.812;7.132;2023-07-29T13:30:41;2.43;;;2.33;;
4106;SDS011;21906;50.812;7.132;2023-07-29T13:33:07;2.80;;;2.60;;
4106;SDS011;21906;50.812;7.132;2023-07-29T13:35:34;2.30;;;2.10;;
4106;SDS011;21906;50.812;7.132;2023-07-29T13:38:00;2.37;;;2.27;;
4106;SDS011;21906;50.812;7.132;2023-07-29T13:40:26;2.60;;;2.40;;
4106;SDS011;21906;50.812;7.132;2023-07-29T13:42:52;2.80;;;2.57;;
4106;SDS011;21906;50.812;7.132;2023-07-29T13:45:18;2.23;;;2.13;;
4106;SDS011;21906;50.812;7.132;2023-07-29T13:47:44;2.70;;;2.60;;
4106;SDS011;21906;50.812;7.132;2023-07-29T13:50:10;2.53;;;2.43;;
4106;SDS011;21906;50.812;7.132;2023-07-29T13:52:38;2.83;;;2.63;;
4106;SDS011;21906;50.812;7.132;2023-07-29T13:55:04;2.70;;;2.50;;
4106;SDS011;21906;50.812;7.132;2023-07-29T13:57:33;2.40;;;2.30;;
4106;SDS011;21906;50.812;7.132;2023-07-29T13:59:59;2.70;;;2.60;;
4106;SDS011;21906;50.812;7.132;2023-07-29T14:02:25;2.40;;;2.20;;
4106;SDS011;21906;50.812;7.132;2023-07-29T14:04:56;3.40;;;2.47;;
4106;SDS011;21906;50.812;7.132;2023-07-29T14:07:22;2.73;;;2.60;;
4106;SDS011;21906;50.812;7.132;2023-07-29T14:09:47;2.40;;;2.30;;
4106;SDS011;21906;50.812;7.132;2023-07-29T14:12:13;2.43;;;2.30;;
4106;SDS011;21906;50.812;7.132;2023-07-29T14:14:40;2.47;;;2.30;;
4106;SDS011;21906;50.812;7.132;2023-07-29T14:17:07;2.60;;;2.40;;
4106;SDS011;21906;50.812;7.132;2023-07-29T14:19:34;2.50;;;2.40;;
4106;SDS011;21906;50.812;7.132;2023-07-29T14:22:00;3.30;;;2.60;;
4106;SDS011;21906;50.812;7.132;2023-07-29T14:24:25;2.60;;;2.40;;
4106;SDS011;21906;50.812;7.132;2023-07-29T14:26:51;3.13;;;2.70;;
4106;SDS011;21906;50.812;7.132;2023-07-29T14:29:17;2.53;;;2.43;;
4106;SDS011;21906;50.812;7.132;2023-07-29T14:31:43;2.97;;;2.77;;
4106;SDS011;21906;50.812;7.132;2023-07-29T14:34:09;2.47;;;2.23;;
4106;SDS011;21906;50.812;7.132;2023-07-29T14:36:35;3.10;;;2.67;;
4106;SDS011;21906;50.812;7.132;2023-07-29T14:39:01;3.00;;;2.70;;
4106;SDS011;21906;50.812;7.132;2023-07-29T14:41:27;3.10;;;2.90;;
4106;SDS011;21906;50.812;7.132;2023-07-29T14:43:53;2.67;;;2.50;;
4106;SDS011;21906;50.812;7.132;2023-07-29T14:46:18;2.47;;;2.27;;
4106;SDS011;21906;50.812;7.132;2023-07-29T14:48:44;2.87;;;2.67;;
4106;SDS011;21906;50.812;7.132;2023-07-29T14:51:12;3.13;;;2.93;;
4106;SDS011;21906;50.812;7.132;2023-07-29T14:53:38;3.00;;;2.80;;
4106;SDS011;21906;50.812;7.132;2023-07-29T14:56:05;3.73;;;2.90;;
4106;SDS011;21906;50.812;7.132;2023-07-29T14:58:31;3.10;;;2.80;;
4106;SDS011;21906;50.812;7.132;2023-07-29T15:00:57;4.30;;;2.90;;
4106;SDS011;21906;50.812;7.132;2023-07-29T15:03:23;5.50;;;2.73;;
4106;SDS011;21906;50.812;7.132;2023-07-29T15:05:49;3.43;;;3.23;;